Monatstabelle

Bitte in den Auwahlmenüs den gewünschte Zeiraum wählen und die Schaltfläche "Anfrage absenden" betätigen. Beginn der Aufzeichnung ist 2007 - Dezember. Vor diesem Zeitraum sind keine Daten verfügbar.

2022 - Mai

 

Datum Temperatur (°C) Luftdruck (hPa) Luftfeuchte (%) Regen
(l/m²)
Wind (km/h)
avg: min: max: avg: min: max: avg: min: max: avg: max:
01.05.2022 11,2 5,5 16,4 1015,5 1014,4 1017,1 79 65 86 1,6 1,6 7,4
02.05.2022 11,9 7,0 20,6 1012,5 1011,1 1015,1 78 46 92 1,9 2,0 10,3
03.05.2022 11,9 5,3 22,7 1011,3 1009,8 1012,5 74 37 94 0,6 1,5 9,5
04.05.2022 11,5 8,1 21,1 1013,4 1011,8 1014,4 85 52 90 5,2 2,1 12,4
05.05.2022 13,0 7,1 21,0 1015,9 1013,8 1016,6 81 55 94 1,1 0,8 11,3
06.05.2022 13,4 8,9 17,0 1017,5 1015,8 1018,1 86 75 92 3,3 2,2 9,2
07.05.2022 13,3 11,5 16,5 1017,6 1016,4 1018,4 89 79 92 6,6 1,1 8,0
08.05.2022 14,2 9,8 19,9 1019,2 1017,6 1020,2 80 58 93 1,4 2,5 12,1
09.05.2022 15,4 8,2 22,8 1020,5 1019,3 1021,8 73 47 94 0,0 3,3 12,6
10.05.2022 15,6 8,0 24,2 1017,6 1015,9 1020,6 69 43 93 0,0 2,7 10,1
11.05.2022 20,6 10,3 28,3 1014,0 1012,5 1016,6 54 30 90 0,0 1,0 6,8
12.05.2022 20,1 13,8 29,9 1015,2 1012,5 1016,8 71 33 88 24,6 3,8 14,8
13.05.2022 16,1 12,5 23,6 1015,9 1014,4 1017,8 83 63 92 6,5 1,7 13,8
14.05.2022 16,8 9,4 24,3 1017,2 1015,4 1018,8 65 40 90 0,0 1,1 10,8
15.05.2022 16,9 9,1 25,1 1016,5 1015,3 1018,0 68 42 92 0,0 1,8 12,7
16.05.2022 18,6 10,1 25,9 1015,3 1014,5 1016,6 68 48 90 0,0 2,7 10,1
17.05.2022 16,2 11,5 21,0 1016,8 1014,8 1019,1 73 62 82 0,3 8,6 18,3
18.05.2022 13,8 7,9 21,1 1023,5 1019,1 1024,6 60 34 93 0,0 2,6 14,8
19.05.2022 20,0 7,2 26,2 1020,3 1019,2 1024,1 40 31 73 0,0 10,9 15,6
20.05.2022 23,6 13,8 30,7 1017,2 1012,9 1020,8 56 40 77 0,0 1,4 8,0
21.05.2022 20,6 16,6 26,1 1015,3 1012,1 1016,6 57 34 88 5,8 8,6 20,6
22.05.2022 17,2 11,9 23,8 1012,6 1010,7 1015,9 57 40 70 0,0 2,5 12,4
23.05.2022 17,6 8,3 22,3 1006,7 1004,4 1012,0 63 44 85 0,3 9,3 14,2
24.05.2022 18,1 14,7 24,6 1007,2 1004,2 1009,8 81 58 89 9,8 2,9 18,2
25.05.2022 14,4 10,6 19,4 1014,2 1009,0 1017,3 87 75 92 7,3 2,7 13,5
26.05.2022 17,1 8,3 24,9 1018,8 1017,2 1019,9 72 45 95 0,0 0,7 8,0
27.05.2022 20,1 11,2 27,4 1014,3 1011,6 1019,3 63 43 91 0,0 7,7 22,2
28.05.2022 15,6 11,3 20,9 1013,0 1011,3 1015,0 48 30 78 0,0 6,1 17,4
29.05.2022 9,8 5,8 14,5 1009,3 1008,2 1013,2 84 57 87 6,6 0,9 7,1
30.05.2022 13,6 5,6 19,6 1010,2 1007,5 1011,6 66 47 94 0,0 2,4 10,6
31.05.2022 18,1 5,8 25,1 1010,3 1008,8 1012,6 67 41 88 0,5 8,5 13,4
avg. 16,0 1015,0 70   ---
  Summe Regen: 83,6  
 
Min-Datum 03.05.2022 24.05.2022 11.05.2022 --- ---
Min-Zeit 04:46 01:02 14:06 --- ---
Minimum 5,3 1004,2 30 --- ---
 

Max-Datum

20.05.2022 18.05.2022 26.05.2022 12.05.2022 27.05.2022
Max-Zeit 15:36 11:02 07:32 19:20 22:30
Maximum 30,7 1024,6 95 24,6 22,2
 

 

  Letztes Jahr
gleiches Monat
Eistage max < 0°C 0 0
Frosttage min < 0°C 0 0
Sommertage max >=25°C 9 2
Heiße Tage max >=30°C 1 0

 

<<< nach oben >>>